Portada
METAR-TAF:

METAR-TAF

Aeropuertos :

Villavicencio, Colombia

Aeropuerto Vanguardia

latitud: 04-10N, longitud: 073-37W, altitud: 423 m

Observación

El informe se hizo hace 35 minutos, a las 15:00 UTC
Viento 6 kt del este
Temperatura 28°C
Humedad 66%
Presión 1016 hPa
Visibilidad 10 km o más
Escasas nubes a una altura de 2300 ft
Nubes dispersas a una altura de 9000 ft

METAR: SKVV 201500Z 08006KT 9999 FEW023 SCT090 28/21 A2999

Hora: 10:35 (15:35 UTC)


TAF: falta

Observaciones y pronósticos meteorológicos de más de 4000 aeropuertos (mensajes METAR y TAF).

Los puntos amarillos y rojos representan las estaciones disponibles.

Ponga el ratón en el punto deseado para ver el nombre de la estación.

Haga clic para ver las observaciones y los pronósticos meteorológicos.

Para cambiar el mapa : haga clic en los botones verdes con una cruz de color negro para hacer un zoom, en el botón verde con un guión para alejar o en las flechas verdes para mapas adyacentes.


METAR-TAF: